createdAt,value
2018-04-28T00:04:38.164Z,100569.94
2018-04-28T00:09:29.898Z,100554.95
2018-04-28T00:14:21.628Z,100552.63
2018-04-28T00:19:14.228Z,100553.58
2018-04-28T00:24:06.236Z,100555.64
2018-04-28T00:29:01.388Z,100547.79
2018-04-28T00:33:52.377Z,100542.53
2018-04-28T00:39:01.048Z,100536.01
2018-04-28T00:43:53.000Z,100536.80
2018-04-28T00:48:58.084Z,100530.92
2018-04-28T00:53:49.198Z,100530.12
2018-04-28T00:58:56.152Z,100521.50
2018-04-28T01:09:23.201Z,100517.64
2018-04-28T01:14:14.941Z,100520.50
2018-04-28T01:19:10.985Z,100526.08
2018-04-28T01:24:17.712Z,100520.90
2018-04-28T01:29:16.552Z,100529.17
2018-04-28T01:34:13.519Z,100516.16
2018-04-28T01:39:07.504Z,100517.55
2018-04-28T01:44:14.305Z,100521.25
2018-04-28T01:49:05.302Z,100521.28
2018-04-28T01:59:23.956Z,100516.31
2018-04-28T02:04:15.955Z,100518.48
2018-04-28T02:09:06.981Z,100518.70
2018-04-28T02:14:30.039Z,100522.97
2018-04-28T02:19:21.909Z,100519.08
2018-04-28T02:29:47.476Z,100520.53
2018-04-28T02:34:55.541Z,100508.91
2018-04-28T02:39:56.577Z,100512.36
2018-04-28T02:50:26.116Z,100521.58
2018-04-28T02:55:53.739Z,100515.63
2018-04-28T03:06:40.765Z,100527.64
2018-04-28T03:11:31.816Z,100528.22
2018-04-28T03:16:28.763Z,100528.50
2018-04-28T03:21:19.772Z,100540.28
2018-04-28T03:26:15.772Z,100541.32
2018-04-28T03:31:10.324Z,100544.02
2018-04-28T03:36:25.381Z,100526.88
2018-04-28T03:41:18.375Z,100531.09
2018-04-28T03:51:44.510Z,100553.84
2018-04-28T03:56:36.306Z,100555.83
2018-04-28T04:01:46.098Z,100549.48
2018-04-28T04:06:39.150Z,100551.02
2018-04-28T04:11:39.437Z,100558.69
2018-04-28T04:22:07.279Z,100550.13
2018-04-28T04:27:04.568Z,100550.13
2018-04-28T04:32:10.553Z,100557.79
2018-04-28T04:37:01.617Z,100569.48
2018-04-28T04:41:59.372Z,100567.02
2018-04-28T04:52:38.399Z,100569.84
2018-04-28T04:57:43.297Z,100584.61
2018-04-28T05:02:38.444Z,100584.11
2018-04-28T05:07:45.462Z,100588.50
2018-04-28T05:12:50.513Z,100594.25
2018-04-28T05:17:50.108Z,100593.06
2018-04-28T05:28:28.109Z,100599.92
2018-04-28T05:38:59.661Z,100621.83
2018-04-28T05:44:09.436Z,100626.66
2018-04-28T05:49:16.506Z,100633.86
2018-04-28T05:54:24.970Z,100631.13
2018-04-28T06:05:23.681Z,100641.39
2018-04-28T06:15:44.570Z,100644.66
2018-04-28T06:20:37.701Z,100653.84
2018-04-28T06:25:28.697Z,100664.42
2018-04-28T06:30:19.718Z,100663.48
2018-04-28T06:35:10.736Z,100671.06
2018-04-28T06:40:02.459Z,100666.05
2018-04-28T06:44:54.255Z,100678.48
2018-04-28T06:49:45.279Z,100685.63
2018-04-28T06:54:36.512Z,100686.05
2018-04-28T06:59:27.545Z,100695.38
2018-04-28T07:04:18.545Z,100693.66
2018-04-28T07:09:09.565Z,100696.25
2018-04-28T07:14:00.573Z,100700.09
2018-04-28T07:18:51.601Z,100701.63
2018-04-28T07:23:42.725Z,100698.42
2018-04-28T07:28:33.743Z,100700.11
2018-04-28T07:33:24.759Z,100704.55
2018-04-28T07:38:15.769Z,100713.09
2018-04-28T07:43:07.618Z,100707.35
2018-04-28T07:47:59.384Z,100698.91
2018-04-28T07:52:50.435Z,100707.15
2018-04-28T07:57:42.547Z,100703.21
2018-04-28T08:02:33.698Z,100715.83
2018-04-28T08:07:24.712Z,100710.45
2018-04-28T08:12:15.725Z,100709.27
2018-04-28T08:17:06.739Z,100720.58
2018-04-28T08:21:57.900Z,100718.63
2018-04-28T08:26:48.921Z,100717.02
2018-04-28T08:31:40.364Z,100718.64
2018-04-28T08:36:31.378Z,100719.51
2018-04-28T08:41:22.438Z,100723.78
2018-04-28T08:46:14.227Z,100716.43
2018-04-28T08:51:05.274Z,100720.90
2018-04-28T08:55:56.306Z,100726.59
2018-04-28T09:01:02.340Z,100726.45
2018-04-28T09:05:53.384Z,100724.79
2018-04-28T09:10:44.466Z,100724.80
2018-04-28T09:15:36.257Z,100725.84
2018-04-28T09:20:27.365Z,100732.15
2018-04-28T09:25:18.390Z,100728.23
2018-04-28T09:30:09.429Z,100725.98
2018-04-28T09:35:00.473Z,100727.99
2018-04-28T09:39:51.527Z,100726.75
2018-04-28T09:44:50.260Z,100724.05
2018-04-28T09:49:41.392Z,100728.77
2018-04-28T09:54:32.488Z,100726.09
2018-04-28T09:59:23.550Z,100718.52
2018-04-28T10:04:20.726Z,100719.92
2018-04-28T10:09:11.959Z,100721.07
2018-04-28T10:14:03.033Z,100716.36
2018-04-28T10:18:54.184Z,100723.28
2018-04-28T10:23:45.226Z,100723.28
2018-04-28T10:28:36.405Z,100718.60
2018-04-28T10:33:27.559Z,100711.83
2018-04-28T10:38:18.605Z,100707.97
2018-04-28T10:43:09.696Z,100710.20
2018-04-28T10:48:00.734Z,100712.40
2018-04-28T10:52:51.915Z,100700.28
2018-04-28T10:57:42.990Z,100706.56
2018-04-28T11:02:34.032Z,100702.55
2018-04-28T11:07:25.082Z,100708.70
2018-04-28T11:12:16.951Z,100707.25
2018-04-28T11:17:08.059Z,100697.52
2018-04-28T11:21:59.932Z,100707.87
2018-04-28T11:26:50.955Z,100702.23
2018-04-28T11:31:42.094Z,100702.34
2018-04-28T11:36:33.132Z,100693.72
2018-04-28T11:41:24.174Z,100692.05
2018-04-28T11:46:15.395Z,100693.36
2018-04-28T11:51:06.460Z,100690.96
2018-04-28T11:55:57.626Z,100679.12
2018-04-28T12:00:48.802Z,100679.11
2018-04-28T12:05:39.840Z,100684.50
2018-04-28T12:10:30.940Z,100680.83
2018-04-28T12:15:22.747Z,100672.46
2018-04-28T12:20:13.798Z,100672.31
2018-04-28T12:25:04.853Z,100675.53
2018-04-28T12:29:55.986Z,100668.69
2018-04-28T12:34:46.982Z,100664.23
2018-04-28T12:39:38.783Z,100657.08
2018-04-28T12:44:29.859Z,100656.56
2018-04-28T12:49:20.898Z,100657.89
2018-04-28T12:54:12.031Z,100658.79
2018-04-28T12:59:03.084Z,100647.91
2018-04-28T13:03:54.110Z,100645.55
2018-04-28T13:08:45.180Z,100639.63
2018-04-28T13:13:37.008Z,100649.53
2018-04-28T13:18:28.804Z,100637.84
2018-04-28T13:23:19.863Z,100647.30
2018-04-28T13:28:10.893Z,100628.55
2018-04-28T13:33:01.959Z,100624.95
2018-04-28T13:37:53.028Z,100623.28
2018-04-28T13:42:44.088Z,100624.36
2018-04-28T13:47:35.907Z,100617.64
2018-04-28T13:52:27.795Z,100623.67
2018-04-28T13:57:18.857Z,100619.87
2018-04-28T14:02:09.905Z,100609.92
2018-04-28T14:07:01.713Z,100624.17
2018-04-28T14:11:52.811Z,100608.27
2018-04-28T14:16:43.841Z,100606.80
2018-04-28T14:21:34.879Z,100613.55
2018-04-28T14:26:25.933Z,100616.42
2018-04-28T14:31:17.796Z,100613.23
2018-04-28T14:36:08.900Z,100600.05
2018-04-28T14:41:00.760Z,100604.96
2018-04-28T14:45:52.625Z,100600.56
2018-04-28T14:50:43.654Z,100608.72
2018-04-28T14:55:34.693Z,100610.13
2018-04-28T15:00:25.888Z,100607.03
2018-04-28T15:05:16.969Z,100617.91
2018-04-28T15:10:08.042Z,100609.77
2018-04-28T15:14:59.164Z,100606.02
2018-04-28T15:19:50.196Z,100607.56
2018-04-28T15:24:41.287Z,100605.05
2018-04-28T15:29:33.164Z,100611.41
2018-04-28T15:34:24.248Z,100606.52
2018-04-28T15:39:16.088Z,100610.27
2018-04-28T15:44:07.897Z,100612.84
2018-04-28T15:49:00.016Z,100610.66
2018-04-28T15:53:51.063Z,100605.40
2018-04-28T15:58:42.203Z,100607.28
2018-04-28T16:03:33.386Z,100600.40
2018-04-28T16:08:24.437Z,100600.34
2018-04-28T16:13:15.630Z,100592.37
2018-04-28T16:18:06.685Z,100600.27
2018-04-28T16:22:57.904Z,100604.08
2018-04-28T16:27:49.007Z,100604.36
2018-04-28T16:32:40.043Z,100612.39
2018-04-28T16:37:31.082Z,100616.19
2018-04-28T16:42:22.180Z,100619.13
2018-04-28T16:47:13.400Z,100615.73
2018-04-28T16:52:04.479Z,100612.33
2018-04-28T16:56:55.552Z,100620.67
2018-04-28T17:01:46.641Z,100625.80
2018-04-28T17:06:38.546Z,100632.36
2018-04-28T17:11:29.635Z,100625.45
2018-04-28T17:16:20.679Z,100632.02
2018-04-28T17:21:11.711Z,100629.56
2018-04-28T17:26:02.768Z,100629.59
2018-04-28T17:30:53.821Z,100638.86
2018-04-28T17:35:44.916Z,100638.55
2018-04-28T17:40:35.964Z,100639.42
2018-04-28T17:45:27.027Z,100643.11
2018-04-28T17:50:18.115Z,100646.76
2018-04-28T17:55:09.187Z,100642.52
2018-04-28T18:00:00.275Z,100649.48
2018-04-28T18:04:51.399Z,100648.27
2018-04-28T18:09:42.524Z,100651.41
2018-04-28T18:14:33.664Z,100654.73
2018-04-28T18:19:24.680Z,100662.03
2018-04-28T18:24:15.783Z,100664.11
2018-04-28T18:29:06.947Z,100671.15
2018-04-28T18:33:58.075Z,100665.11
2018-04-28T18:38:49.162Z,100668.36
2018-04-28T18:43:40.223Z,100686.79
2018-04-28T18:48:31.361Z,100675.44
2018-04-28T18:53:22.672Z,100675.27
2018-04-28T18:58:14.115Z,100692.05
2018-04-28T19:03:05.204Z,100704.18
2018-04-28T19:07:56.255Z,100711.03
2018-04-28T19:12:47.360Z,100721.94
2018-04-28T19:17:38.612Z,100719.54
2018-04-28T19:22:30.107Z,100731.61
2018-04-28T19:27:21.153Z,100737.91
2018-04-28T19:32:12.268Z,100737.17
2018-04-28T19:37:03.369Z,100741.22
2018-04-28T19:41:55.204Z,100750.82
2018-04-28T19:46:47.004Z,100755.27
2018-04-28T19:51:38.054Z,100749.31
2018-04-28T19:56:29.848Z,100732.20
2018-04-28T20:01:20.939Z,100739.02
2018-04-28T20:06:12.740Z,100736.02
2018-04-28T20:11:03.896Z,100739.85
2018-04-28T20:15:55.697Z,100749.65
2018-04-28T20:20:46.736Z,100759.92
2018-04-28T20:25:37.797Z,100764.12
2018-04-28T20:30:28.843Z,100765.14
2018-04-28T20:35:19.962Z,100769.75
2018-04-28T20:40:11.043Z,100765.13
2018-04-28T20:45:02.234Z,100767.83
2018-04-28T20:49:53.333Z,100761.38
2018-04-28T20:54:44.405Z,100767.60
2018-04-28T20:59:35.464Z,100770.51
2018-04-28T21:04:26.641Z,100767.62
2018-04-28T21:09:17.768Z,100772.16
2018-04-28T21:14:08.890Z,100782.11
2018-04-28T21:19:00.027Z,100774.92
2018-04-28T21:23:51.166Z,100763.66
2018-04-28T21:28:42.967Z,100761.03
2018-04-28T21:33:34.029Z,100764.39
2018-04-28T21:38:25.177Z,100766.70
2018-04-28T21:43:16.947Z,100767.48
2018-04-28T21:48:08.147Z,100764.69
2018-04-28T21:52:59.923Z,100764.06
2018-04-28T21:57:50.983Z,100757.05
2018-04-28T22:02:42.032Z,100752.86
2018-04-28T22:07:33.816Z,100746.95
2018-04-28T22:12:24.901Z,100729.70
2018-04-28T22:17:15.942Z,100731.91
2018-04-28T22:22:06.984Z,100751.55
2018-04-28T22:26:58.098Z,100759.39
2018-04-28T22:31:49.156Z,100757.98
2018-04-28T22:36:40.304Z,100758.29
2018-04-28T22:41:32.116Z,100760.38
2018-04-28T22:46:23.209Z,100759.55
2018-04-28T22:51:14.255Z,100761.90
2018-04-28T22:56:05.352Z,100755.84
2018-04-28T23:00:56.451Z,100758.22
2018-04-28T23:05:48.257Z,100766.74
2018-04-28T23:10:40.125Z,100760.78
2018-04-28T23:15:31.921Z,100753.27
2018-04-28T23:20:22.962Z,100740.77
2018-04-28T23:25:14.009Z,100735.32
2018-04-28T23:30:05.760Z,100739.28
2018-04-28T23:34:57.589Z,100730.98
2018-04-28T23:39:49.396Z,100731.45
2018-04-28T23:44:40.473Z,100725.33
2018-04-28T23:49:31.508Z,100720.21
2018-04-28T23:54:22.605Z,100709.23
2018-04-28T23:59:14.380Z,100696.42
